Terminal Aerodrome Forecast
Issued by NWS North Platte, NE

Home | Current Version | Previous Version | Graphics & Text | Print | Product List | Glossary Off
Versions: 1 2 3 4 5 6 7 8 9 10 11 12 13 14 15 16 17 18

000
FTUS43 KLBF 242320
TAFVTN
TAF
KVTN 242320Z 2500/2524 16012KT P6SM SCT120 BKN200
     FM250200 12012G19KT P6SM VCTS SCT090CB BKN200
      TEMPO 2503/2507 VRB25G45KT 3SM +TSRAGS BKN040CB
     FM250700 VRB05KT P6SM VCSH BKN050
     FM250900 VRB05KT P6SM BKN035
     FM251600 28008KT P6SM SCT035
     FM251800 26008KT P6SM SKC=

USA.gov is the U.S. government's official web portal to all federal, state and local government web resources and services.